Time;durP1;ratioP1;P1;durP2;ratioP2;P2;SDS_P1;SDS_P2;PMS_P1;PMS_P2;Temp;Humidity;BMP_temperature;BMP_pressure;BME280_temperature;BME280_humidity;BME280_pressure;Samples;Min_cycle;Max_cycle;Signal;HPM_P1;HPM_P2
2021/05/11 00:00:53;;;;;;;6.70;4.20;;;15.50;98.30;;;;;;4087184;28;20493;-82
2021/05/11 00:02:55;;;;;;;5.87;4.57;;;15.30;98.30;;;;;;4092873;29;20493;-82
2021/05/11 00:04:57;;;;;;;13.17;9.83;;;15.30;98.30;;;;;;4091635;29;20497;-82
2021/05/11 00:06:59;;;;;;;7.83;5.30;;;15.30;98.30;;;;;;4091442;29;20496;-82
2021/05/11 00:09:01;;;;;;;17.47;11.43;;;15.10;98.30;;;;;;4096902;28;20504;-82
2021/05/11 00:11:03;;;;;;;12.40;9.43;;;15.20;98.30;;;;;;4096853;29;20859;-82
2021/05/11 00:13:04;;;;;;;5.80;4.90;;;15.20;98.30;;;;;;4092055;29;20502;-82
2021/05/11 00:15:08;;;;;;;9.90;5.77;;;15.20;98.30;;;;;;4086917;28;20595;-82
2021/05/11 00:17:10;;;;;;;5.33;4.10;;;15.20;98.30;;;;;;4092210;28;20507;-82
2021/05/11 00:19:14;;;;;;;7.20;5.73;;;15.20;98.30;;;;;;4089515;29;20488;-83
2021/05/11 00:21:16;;;;;;;8.07;6.90;;;15.30;98.30;;;;;;4091226;29;20881;-82
2021/05/11 00:23:18;;;;;;;10.53;6.83;;;15.10;98.30;;;;;;4092337;28;20504;-83
2021/05/11 00:25:19;;;;;;;11.20;8.83;;;15.10;98.30;;;;;;4096972;29;20835;-82
2021/05/11 00:27:21;;;;;;;7.17;4.80;;;15.10;98.30;;;;;;4090946;29;20490;-82
2021/05/11 00:29:23;;;;;;;5.10;4.60;;;15.00;98.30;;;;;;4094091;29;20507;-82
2021/05/11 00:31:26;;;;;;;5.40;4.33;;;15.10;98.30;;;;;;4098462;29;20529;-82
2021/05/11 00:33:31;;;;;;;7.30;4.67;;;15.10;98.30;;;;;;4093225;29;20651;-82
2021/05/11 00:35:33;;;;;;;6.10;4.50;;;14.90;98.30;;;;;;4094181;29;20493;-82
2021/05/11 00:37:36;;;;;;;8.73;4.77;;;14.70;98.30;;;;;;4096659;28;20854;-81
2021/05/11 00:39:38;;;;;;;7.03;3.93;;;14.90;98.30;;;;;;4096607;28;20497;-82
2021/05/11 00:41:40;;;;;;;6.47;4.20;;;14.70;98.30;;;;;;4096366;29;20922;-82
2021/05/11 00:43:43;;;;;;;6.30;4.40;;;14.70;98.30;;;;;;4092267;28;20567;-81
2021/05/11 00:45:44;;;;;;;7.57;5.40;;;14.70;98.30;;;;;;4097047;29;20979;-82
2021/05/11 00:47:47;;;;;;;9.57;5.53;;;14.60;98.30;;;;;;4099625;29;20493;-82
2021/05/11 00:49:50;;;;;;;49.17;29.90;;;14.70;98.30;;;;;;4096864;28;20525;-82
2021/05/11 00:51:52;;;;;;;7.27;5.30;;;14.80;98.30;;;;;;4099784;29;20486;-82
2021/05/11 00:53:54;;;;;;;5.43;4.50;;;14.90;98.30;;;;;;4096470;29;20911;-82
2021/05/11 00:55:56;;;;;;;9.97;4.90;;;14.90;98.30;;;;;;4094019;29;21127;-82
2021/05/11 00:57:59;;;;;;;6.60;4.40;;;15.00;98.30;;;;;;4093172;29;20960;-82
2021/05/11 01:00:01;;;;;;;5.10;4.60;;;15.20;98.30;;;;;;4099210;29;20496;-82
2021/05/11 01:02:05;;;;;;;13.07;9.20;;;15.20;98.30;;;;;;4097866;29;21013;-82
2021/05/11 01:04:08;;;;;;;9.77;7.40;;;15.00;98.30;;;;;;4094279;29;21056;-82
2021/05/11 01:06:10;;;;;;;17.67;12.30;;;15.00;98.30;;;;;;4089292;29;20494;-82
2021/05/11 01:08:14;;;;;;;7.90;5.73;;;15.00;98.30;;;;;;4093255;29;20541;-83
2021/05/11 01:10:16;;;;;;;8.20;5.30;;;15.00;98.30;;;;;;4090829;28;20494;-83
2021/05/11 01:12:21;;;;;;;6.27;5.00;;;15.10;98.30;;;;;;4093452;29;20497;-82
2021/05/11 01:14:25;;;;;;;11.40;5.57;;;15.30;98.30;;;;;;4100185;29;20480;-83
2021/05/11 01:16:29;;;;;;;5.83;5.23;;;15.20;98.30;;;;;;4091912;29;20990;-83
2021/05/11 01:18:32;;;;;;;8.60;4.97;;;15.10;98.30;;;;;;4095035;29;20556;-82
2021/05/11 01:20:38;;;;;;;9.47;6.00;;;14.90;98.30;;;;;;4097677;29;20499;-82
2021/05/11 01:23:05;;;;;;;5.67;5.17;;;14.80;98.30;;;;;;4091796;29;20545;-83
2021/05/11 01:25:10;;;;;;;9.70;6.13;;;14.90;98.30;;;;;;4092607;29;20494;-83
2021/05/11 01:27:23;;;;;;;7.53;5.80;;;15.00;98.30;;;;;;4093606;29;20984;-83
2021/05/11 01:29:43;;;;;;;6.17;5.57;;;14.90;98.30;;;;;;4091879;29;20488;-83
2021/05/11 01:43:58;;;;;;;9.00;5.90;;;15.00;98.30;;;;;;4091194;29;20485;-83
2021/05/11 01:48:30;;;;;;;6.63;5.60;;;15.10;98.30;;;;;;4091320;29;20502;-83
2021/05/11 01:50:35;;;;;;;6.40;5.80;;;15.10;98.30;;;;;;4092959;29;20497;-82
2021/05/11 01:55:15;;;;;;;6.23;5.63;;;14.90;98.30;;;;;;4089284;29;20497;-82
2021/05/11 02:23:20;;;;;;;5.87;4.20;;;14.40;98.30;;;;;;4093990;29;20517;-83
2021/05/11 02:25:22;;;;;;;5.57;4.97;;;14.30;98.30;;;;;;4094128;29;20601;-82
2021/05/11 02:27:24;;;;;;;7.63;4.50;;;14.20;98.30;;;;;;4096401;29;20493;-83
2021/05/11 02:29:26;;;;;;;5.70;3.97;;;14.10;98.30;;;;;;4096935;28;20503;-83
2021/05/11 02:31:28;;;;;;;4.90;4.23;;;14.20;98.30;;;;;;4096683;29;20486;-83
2021/05/11 02:33:30;;;;;;;10.40;4.20;;;14.20;98.30;;;;;;4093253;29;20635;-82
2021/05/11 02:35:34;;;;;;;6.87;4.33;;;14.30;98.30;;;;;;4089231;29;20908;-83
2021/05/11 02:37:36;;;;;;;6.37;4.43;;;14.30;98.30;;;;;;4088942;29;20496;-82
2021/05/11 02:39:38;;;;;;;4.23;3.83;;;14.30;98.30;;;;;;4094700;28;20492;-82
2021/05/11 02:41:43;;;;;;;6.03;4.63;;;14.30;98.30;;;;;;4085521;29;20999;-82
2021/05/11 02:43:46;;;;;;;5.03;4.50;;;14.30;98.30;;;;;;4091200;29;21259;-82
2021/05/11 02:45:48;;;;;;;7.10;4.10;;;14.30;98.30;;;;;;4094531;29;20539;-82
2021/05/11 02:47:51;;;;;;;6.00;3.80;;;14.30;98.30;;;;;;4091434;29;20523;-82
2021/05/11 02:49:53;;;;;;;5.47;4.07;;;14.30;98.30;;;;;;4087772;29;20517;-82
2021/05/11 02:51:55;;;;;;;7.70;5.07;;;14.30;98.30;;;;;;4091134;29;20857;-82
2021/05/11 02:53:57;;;;;;;7.83;6.03;;;14.30;98.30;;;;;;4092531;29;20520;-82
2021/05/11 02:55:58;;;;;;;8.17;4.73;;;14.30;98.30;;;;;;4088659;29;20503;-83
2021/05/11 02:58:01;;;;;;;5.53;4.40;;;14.20;98.30;;;;;;4095408;29;20972;-83
2021/05/11 03:00:06;;;;;;;5.00;4.43;;;14.30;98.30;;;;;;4095345;28;20488;-82
2021/05/11 03:02:09;;;;;;;5.83;4.43;;;14.40;98.30;;;;;;4092299;28;20500;-83
2021/05/11 03:04:11;;;;;;;10.30;4.67;;;14.50;98.30;;;;;;4093904;29;20855;-82
2021/05/11 03:06:13;;;;;;;6.87;5.03;;;14.60;98.30;;;;;;4088682;28;20494;-82
2021/05/11 03:08:15;;;;;;;6.80;4.43;;;14.60;98.30;;;;;;4092297;29;20821;-82
2021/05/11 03:10:18;;;;;;;8.77;4.80;;;14.50;98.30;;;;;;4093577;29;20488;-83
2021/05/11 03:12:20;;;;;;;5.17;4.10;;;14.50;98.30;;;;;;4093149;28;20584;-82
2021/05/11 03:14:22;;;;;;;6.30;4.67;;;14.40;98.30;;;;;;4095667;29;20491;-83
2021/05/11 03:16:26;;;;;;;5.50;4.40;;;14.30;98.30;;;;;;4090323;29;20489;-83
2021/05/11 03:18:28;;;;;;;4.83;4.27;;;14.30;98.30;;;;;;4091507;29;20498;-82
2021/05/11 03:20:30;;;;;;;6.10;4.50;;;14.30;98.30;;;;;;4091790;28;20504;-82
2021/05/11 03:22:32;;;;;;;5.37;4.20;;;14.20;98.30;;;;;;4098271;29;21292;-82
2021/05/11 03:24:36;;;;;;;7.63;4.77;;;14.10;98.30;;;;;;4098473;29;20512;-82
2021/05/11 03:26:38;;;;;;;4.70;4.17;;;14.30;98.30;;;;;;4089197;29;20607;-82
2021/05/11 03:28:39;;;;;;;5.87;4.03;;;14.30;98.30;;;;;;4092378;29;20500;-82
2021/05/11 03:30:42;;;;;;;6.03;4.20;;;14.20;98.30;;;;;;4098942;28;20493;-82
2021/05/11 03:32:45;;;;;;;7.33;4.20;;;14.00;98.30;;;;;;4098914;29;20528;-81
2021/05/11 03:34:47;;;;;;;5.73;3.53;;;14.00;98.30;;;;;;4099520;29;20489;-81
2021/05/11 03:36:49;;;;;;;4.97;3.50;;;14.10;98.30;;;;;;4096760;29;20496;-82
2021/05/11 03:38:53;;;;;;;5.43;4.00;;;14.00;98.30;;;;;;4096478;29;20521;-82
2021/05/11 03:40:55;;;;;;;4.63;3.37;;;14.10;98.30;;;;;;4089766;28;20897;-82
2021/05/11 03:43:01;;;;;;;6.00;4.00;;;14.20;98.30;;;;;;4094203;29;20509;-82
2021/05/11 03:45:05;;;;;;;4.50;4.00;;;14.20;98.30;;;;;;4091878;29;20849;-82
2021/05/11 03:47:08;;;;;;;5.20;3.27;;;14.20;98.30;;;;;;4087625;29;20493;-84
2021/05/11 03:49:14;;;;;;;5.13;3.27;;;14.10;98.30;;;;;;4094936;28;20548;-82
2021/05/11 03:51:17;;;;;;;10.27;3.80;;;14.10;98.30;;;;;;4095094;29;20496;-82
2021/05/11 03:53:19;;;;;;;4.57;3.00;;;13.90;98.30;;;;;;4093624;29;20832;-81
2021/05/11 03:55:22;;;;;;;4.23;2.97;;;13.70;98.30;;;;;;4092935;29;20501;-82
2021/05/11 03:57:24;;;;;;;3.60;3.10;;;13.60;98.30;;;;;;4090633;29;20895;-81
2021/05/11 03:59:27;;;;;;;7.43;3.27;;;13.50;98.30;;;;;;4092940;29;20519;-83
2021/05/11 04:01:30;;;;;;;4.97;3.53;;;13.50;98.30;;;;;;4101055;29;20488;-82
2021/05/11 04:03:32;;;;;;;6.87;4.37;;;13.60;98.30;;;;;;4091739;29;20489;-82
2021/05/11 04:05:36;;;;;;;4.23;3.33;;;13.70;98.30;;;;;;4100443;29;20499;-82
2021/05/11 04:07:40;;;;;;;7.87;5.07;;;13.80;98.30;;;;;;4096180;29;20489;-83
2021/05/11 04:09:45;;;;;;;6.80;3.80;;;13.90;98.30;;;;;;4100959;29;20575;-82
2021/05/11 04:14:19;;;;;;;5.70;4.30;;;14.10;98.30;;;;;;4095715;29;20497;-83
2021/05/11 04:16:22;;;;;;;7.00;3.43;;;14.30;98.30;;;;;;4101132;29;20599;-83
2021/05/11 04:18:25;;;;;;;5.70;3.40;;;14.40;98.30;;;;;;4100547;29;20519;-82
2021/05/11 04:20:27;;;;;;;6.30;3.43;;;14.40;98.30;;;;;;4100294;28;20995;-82
2021/05/11 04:22:30;;;;;;;4.20;2.97;;;14.50;98.30;;;;;;4093881;29;20521;-82
2021/05/11 04:24:33;;;;;;;4.97;3.63;;;14.50;98.30;;;;;;4091873;29;20513;-82
2021/05/11 04:26:35;;;;;;;4.67;3.87;;;14.40;98.30;;;;;;4099344;29;21073;-83
2021/05/11 04:28:38;;;;;;;5.10;3.53;;;14.30;98.30;;;;;;4099503;29;20507;-83
2021/05/11 04:30:40;;;;;;;6.20;3.03;;;14.30;98.30;;;;;;4099240;28;20507;-83
2021/05/11 04:32:42;;;;;;;6.77;3.87;;;14.30;98.30;;;;;;4093839;29;20573;-82
2021/05/11 04:34:45;;;;;;;3.27;2.87;;;14.20;98.30;;;;;;4095378;29;20579;-82
2021/05/11 04:36:47;;;;;;;6.70;3.50;;;14.20;98.30;;;;;;4099674;28;20493;-82
2021/05/11 04:38:51;;;;;;;5.23;3.80;;;14.30;98.30;;;;;;4092204;29;20497;-82
2021/05/11 04:40:54;;;;;;;5.20;3.50;;;14.20;98.30;;;;;;4100977;28;20495;-83
2021/05/11 04:42:57;;;;;;;5.17;3.30;;;14.20;98.30;;;;;;4095959;29;21272;-82
2021/05/11 04:45:00;;;;;;;5.80;3.40;;;14.20;98.30;;;;;;4093455;29;20576;-82
2021/05/11 04:47:08;;;;;;;4.47;3.47;;;14.30;98.30;;;;;;4094861;29;20500;-83
2021/05/11 04:49:11;;;;;;;6.07;3.60;;;14.30;98.30;;;;;;4090823;29;21238;-83
2021/05/11 04:51:14;;;;;;;7.87;3.77;;;14.20;98.30;;;;;;4094131;29;20544;-82
2021/05/11 04:53:16;;;;;;;7.67;4.37;;;14.30;98.30;;;;;;4095700;29;21021;-83
2021/05/11 04:55:20;;;;;;;5.60;3.43;;;14.40;98.30;;;;;;4095225;29;20489;-83
2021/05/11 04:57:22;;;;;;;5.33;3.53;;;14.60;98.30;;;;;;4095375;29;20505;-83
2021/05/11 04:59:25;;;;;;;5.70;3.60;;;14.60;98.30;;;;;;4094299;29;20964;-83
2021/05/11 05:01:27;;;;;;;6.97;3.93;;;14.70;98.30;;;;;;4099039;29;20831;-82
2021/05/11 05:03:31;;;;;;;7.20;3.63;;;14.60;98.30;;;;;;4098569;29;20493;-83
2021/05/11 05:05:33;;;;;;;5.87;3.47;;;14.60;98.30;;;;;;4098802;29;20516;-83
2021/05/11 05:07:36;;;;;;;5.10;3.67;;;14.60;98.30;;;;;;4097805;29;20493;-83
2021/05/11 05:09:38;;;;;;;5.77;4.50;;;14.70;98.30;;;;;;4098947;28;20902;-83
2021/05/11 05:11:41;;;;;;;6.80;4.20;;;14.80;98.30;;;;;;4099774;29;20532;-82
2021/05/11 05:13:46;;;;;;;5.03;3.57;;;14.80;98.30;;;;;;4099812;29;20492;-83
2021/05/11 05:15:50;;;;;;;5.57;3.90;;;14.80;98.30;;;;;;4098073;29;21128;-82
2021/05/11 05:17:53;;;;;;;7.10;4.90;;;14.90;98.30;;;;;;4099513;29;20489;-82
2021/05/11 05:19:55;;;;;;;11.03;6.73;;;14.90;98.30;;;;;;4098871;29;20604;-83
2021/05/11 05:21:59;;;;;;;9.40;5.63;;;14.80;98.30;;;;;;4099534;29;20489;-83
2021/05/11 05:24:07;;;;;;;12.97;10.40;;;14.80;98.30;;;;;;4091164;29;20502;-82
2021/05/11 05:26:11;;;;;;;7.00;5.73;;;14.90;98.30;;;;;;4091251;29;20939;-82
2021/05/11 05:28:14;;;;;;;6.30;4.60;;;15.00;98.30;;;;;;4093674;29;20493;-83
2021/05/11 05:30:18;;;;;;;5.00;4.50;;;15.00;98.30;;;;;;4094130;28;20512;-83
2021/05/11 05:32:20;;;;;;;5.80;4.00;;;15.00;98.30;;;;;;4096030;28;20501;-83
2021/05/11 05:34:22;;;;;;;5.00;4.00;;;15.00;98.30;;;;;;4090149;28;20486;-83
2021/05/11 05:36:25;;;;;;;6.40;4.23;;;15.10;98.30;;;;;;4095611;29;21039;-83
2021/05/11 05:38:28;;;;;;;6.10;3.70;;;15.00;98.30;;;;;;4090337;29;20576;-82
2021/05/11 05:40:33;;;;;;;4.87;3.37;;;15.00;98.30;;;;;;4089542;29;20496;-82
2021/05/11 05:42:36;;;;;;;6.03;3.63;;;15.10;98.30;;;;;;4091818;29;20493;-82
2021/05/11 05:44:39;;;;;;;8.23;3.97;;;15.00;98.30;;;;;;4092405;29;20580;-82
2021/05/11 05:46:41;;;;;;;4.57;3.90;;;15.00;98.30;;;;;;4093906;29;20490;-83
2021/05/11 05:48:45;;;;;;;5.70;3.33;;;15.00;98.30;;;;;;4090183;29;20496;-83
2021/05/11 05:50:51;;;;;;;6.87;3.90;;;14.90;98.30;;;;;;4093928;28;20511;-82
2021/05/11 05:53:00;;;;;;;9.53;4.30;;;15.00;98.30;;;;;;4097582;29;20629;-83
2021/05/11 05:55:03;;;;;;;5.00;3.40;;;15.00;98.30;;;;;;4090856;29;20564;-83
2021/05/11 05:57:06;;;;;;;6.87;4.37;;;14.80;98.30;;;;;;4092974;29;20501;-83
2021/05/11 05:59:09;;;;;;;5.70;3.70;;;14.80;98.30;;;;;;4099175;28;20520;-83
2021/05/11 06:01:12;;;;;;;4.03;3.63;;;14.90;98.30;;;;;;4092026;29;20497;-83
2021/05/11 06:03:31;;;;;;;6.33;3.63;;;14.80;98.30;;;;;;4101356;28;20571;-83
2021/05/11 06:05:34;;;;;;;5.90;4.03;;;14.80;98.30;;;;;;4088886;29;20486;-82
2021/05/11 06:07:36;;;;;;;6.03;3.80;;;14.70;98.30;;;;;;4093145;29;20535;-82
2021/05/11 06:09:39;;;;;;;6.57;3.63;;;14.60;98.30;;;;;;4093793;29;20497;-82
2021/05/11 06:11:45;;;;;;;5.37;3.40;;;14.60;98.30;;;;;;4097998;29;20519;-83
2021/05/11 06:13:54;;;;;;;5.00;3.50;;;14.60;98.30;;;;;;4099603;29;20488;-82
2021/05/11 06:18:18;;;;;;;4.23;3.10;;;14.50;98.30;;;;;;4094410;29;20495;-82
2021/05/11 06:20:20;;;;;;;11.33;5.00;;;14.60;98.30;;;;;;4090543;29;20524;-82
2021/05/11 06:22:23;;;;;;;6.63;4.10;;;14.70;98.30;;;;;;4089760;29;20567;-82
2021/05/11 06:24:26;;;;;;;7.90;4.90;;;14.70;98.30;;;;;;4091783;29;20568;-84
2021/05/11 06:26:29;;;;;;;4.67;3.77;;;14.80;98.30;;;;;;4093215;29;20495;-83
2021/05/11 06:28:37;;;;;;;6.03;3.40;;;14.90;98.30;;;;;;4091737;29;20493;-84
2021/05/11 06:30:40;;;;;;;4.40;3.30;;;14.90;98.30;;;;;;4089912;28;20545;-84
2021/05/11 06:32:45;;;;;;;6.90;3.50;;;14.80;98.30;;;;;;4089943;28;20989;-82
2021/05/11 06:34:54;;;;;;;6.00;3.50;;;14.80;98.30;;;;;;4091638;29;20500;-84
2021/05/11 06:36:57;;;;;;;4.00;3.37;;;14.70;98.30;;;;;;4087112;29;20544;-83
2021/05/11 06:39:01;;;;;;;7.57;3.30;;;14.80;98.30;;;;;;4088866;28;20493;-83
2021/05/11 06:41:04;;;;;;;4.00;3.50;;;14.80;98.30;;;;;;4092730;29;20497;-85
2021/05/11 06:43:06;;;;;;;5.43;3.43;;;14.80;98.30;;;;;;4093379;29;20616;-84
2021/05/11 06:45:21;;;;;;;7.70;3.90;;;14.80;98.30;;;;;;4088966;29;20489;-84
2021/05/11 06:47:31;;;;;;;7.10;3.57;;;14.80;98.30;;;;;;4089380;29;20500;-84
2021/05/11 06:49:46;;;;;;;8.30;4.97;;;14.90;98.30;;;;;;4090093;28;20921;-85
2021/05/11 06:54:10;;;;;;;6.80;3.90;;;14.90;98.30;;;;;;4091014;29;21023;-84
2021/05/11 06:56:14;;;;;;;7.10;3.60;;;14.90;98.30;;;;;;4090115;29;20530;-83
2021/05/11 06:58:17;;;;;;;6.17;3.10;;;14.80;98.30;;;;;;4091545;28;20904;-84
2021/05/11 07:00:20;;;;;;;4.37;3.17;;;14.70;98.30;;;;;;4097105;28;20600;-85
2021/05/11 07:02:23;;;;;;;4.60;3.60;;;14.60;98.30;;;;;;4096014;28;20501;-84
2021/05/11 07:04:25;;;;;;;4.30;3.07;;;14.50;98.30;;;;;;4097988;29;20539;-84
2021/05/11 07:06:27;;;;;;;4.60;3.03;;;14.50;98.30;;;;;;4095877;29;20543;-83
2021/05/11 07:08:37;;;;;;;6.30;3.10;;;14.50;98.30;;;;;;4096588;29;20915;-84
2021/05/11 07:10:41;;;;;;;3.87;3.23;;;14.50;98.30;;;;;;4090244;29;20493;-83
2021/05/11 07:15:11;;;;;;;5.10;2.90;;;14.50;98.30;;;;;;4088843;29;20489;-83
2021/05/11 07:17:14;;;;;;;5.90;3.20;;;14.50;98.30;;;;;;4091703;29;20583;-83
2021/05/11 07:19:16;;;;;;;8.30;3.53;;;14.50;98.30;;;;;;4093088;28;21042;-84
2021/05/11 07:21:19;;;;;;;6.67;3.13;;;14.50;98.30;;;;;;4092065;29;20495;-84
2021/05/11 07:23:21;;;;;;;4.90;3.07;;;14.40;98.30;;;;;;4092040;29;20505;-84
2021/05/11 07:25:29;;;;;;;7.63;3.07;;;14.30;98.30;;;;;;4092550;29;20500;-83
2021/05/11 07:27:48;;;;;;;10.33;7.20;;;14.20;98.30;;;;;;4091136;29;20501;-83
2021/05/11 07:29:53;;;;;;;15.50;9.90;;;14.10;98.30;;;;;;4091164;28;20493;-85
2021/05/11 07:31:56;;;;;;;21.37;13.37;;;14.00;98.30;;;;;;4092677;29;20587;-83
2021/05/11 07:34:03;;;;;;;47.23;24.20;;;13.90;98.30;;;;;;4091962;29;20493;-84
2021/05/11 07:36:06;;;;;;;11.87;5.97;;;13.80;98.30;;;;;;4092406;29;20842;-84
2021/05/11 07:38:08;;;;;;;6.13;3.77;;;13.80;98.30;;;;;;4097067;29;20497;-84
2021/05/11 07:40:12;;;;;;;5.67;3.63;;;13.80;98.30;;;;;;4093939;28;20501;-85
2021/05/11 07:42:15;;;;;;;6.57;3.30;;;13.90;98.30;;;;;;4093625;29;21003;-83
2021/05/11 07:44:17;;;;;;;7.00;4.43;;;13.90;98.30;;;;;;4094587;29;20994;-84
2021/05/11 07:49:12;;;;;;;36.77;25.53;;;13.90;98.30;;;;;;4061247;29;20501;-84
2021/05/11 07:51:49;;;;;;;6.03;4.00;;;13.90;98.30;;;;;;4094989;29;20555;-84
2021/05/11 08:03:34;;;;;;;5.10;3.10;;;13.80;98.30;;;;;;4093859;29;20493;-84
2021/05/11 08:05:40;;;;;;;17.40;10.30;;;13.80;98.30;;;;;;4091751;29;20496;-83
2021/05/11 08:10:26;;;;;;;120.77;71.73;;;13.80;98.30;;;;;;4093085;28;20489;-84
2021/05/11 08:14:58;;;;;;;5.50;3.40;;;13.70;98.30;;;;;;4095813;29;20494;-85
2021/05/11 08:17:01;;;;;;;6.20;3.23;;;13.80;98.30;;;;;;4100326;29;20979;-84
2021/05/11 08:19:07;;;;;;;6.93;3.50;;;13.80;98.30;;;;;;4095452;28;20533;-84
2021/05/11 08:27:27;;;;;;;4.40;3.10;;;13.80;98.30;;;;;;4092816;29;20599;-84
2021/05/11 08:28:18;;;;;;;4.57;2.83;;;13.80;98.30;;;;;;4090817;29;20497;-84
2021/05/11 08:30:24;;;;;;;4.50;2.80;;;13.80;98.30;;;;;;4091088;29;20589;-83
2021/05/11 08:32:27;;;;;;;4.60;2.87;;;13.80;98.30;;;;;;4093857;29;20501;-84
2021/05/11 08:34:29;;;;;;;4.97;2.73;;;13.90;98.30;;;;;;4097154;29;20559;-83
2021/05/11 08:36:31;;;;;;;4.60;2.50;;;13.90;98.30;;;;;;4091312;29;20900;-84
2021/05/11 08:38:34;;;;;;;5.67;3.10;;;13.90;98.30;;;;;;4092063;29;20480;-84
2021/05/11 08:40:39;;;;;;;4.23;2.97;;;13.90;98.30;;;;;;4093932;28;21216;-83
2021/05/11 08:42:42;;;;;;;4.13;2.67;;;14.00;98.30;;;;;;4093393;29;20493;-83
2021/05/11 08:44:44;;;;;;;3.33;2.53;;;13.90;98.30;;;;;;4091586;28;20494;-83
2021/05/11 08:46:50;;;;;;;6.07;3.00;;;13.90;98.30;;;;;;4092254;29;20857;-83
2021/05/11 08:48:54;;;;;;;7.20;2.70;;;14.00;98.30;;;;;;4094739;29;20494;-84
2021/05/11 08:51:01;;;;;;;3.03;2.73;;;14.00;98.30;;;;;;4095892;29;20500;-84
2021/05/11 08:53:21;;;;;;;3.70;2.93;;;14.00;98.30;;;;;;4093317;29;20484;-83
2021/05/11 08:59:54;;;;;;;13.43;8.57;;;14.10;98.30;;;;;;4091518;29;20487;-84
2021/05/11 09:05:14;;;;;;;3.60;2.90;;;14.10;98.30;;;;;;4095116;29;20497;-84
2021/05/11 09:09:56;;;;;;;4.73;3.47;;;14.00;98.30;;;;;;4073138;29;20521;-86
2021/05/11 09:15:07;;;;;;;8.07;3.80;;;14.00;98.30;;;;;;4101731;28;20504;-83
2021/05/11 09:24:52;;;;;;;3.47;2.70;;;14.10;98.30;;;;;;4097901;29;20509;-83
2021/05/11 09:26:58;;;;;;;6.97;2.67;;;14.00;98.30;;;;;;4095781;29;20500;-85
2021/05/11 09:29:06;;;;;;;3.83;2.50;;;14.00;98.30;;;;;;4097158;28;21081;-82
2021/05/11 09:31:25;;;;;;;3.80;2.73;;;14.00;98.30;;;;;;4097404;29;21010;-82
2021/05/11 09:33:32;;;;;;;3.30;2.70;;;13.90;98.30;;;;;;4098722;29;20579;-83
2021/05/11 09:45:26;;;;;;;5.10;3.30;;;14.30;98.30;;;;;;4097359;28;20481;-81
2021/05/11 09:54:44;;;;;;;3.43;2.73;;;14.40;98.30;;;;;;4084866;29;20496;-82
2021/05/11 09:56:55;;;;;;;5.50;2.70;;;14.40;98.30;;;;;;4093030;28;20489;-84
2021/05/11 09:59:32;;;;;;;3.93;2.67;;;14.50;98.30;;;;;;4091643;28;20494;-84
2021/05/11 10:27:20;;;;;;;4.87;2.87;;;15.00;98.30;;;;;;4069427;28;20497;-82
2021/05/11 10:32:18;;;;;;;6.17;3.00;;;15.10;98.30;;;;;;4092750;29;20484;-84
2021/05/11 10:39:36;;;;;;;5.20;3.00;;;15.30;98.30;;;;;;4092768;28;20496;-82
2021/05/11 10:41:54;;;;;;;3.67;2.80;;;15.40;98.30;;;;;;4088311;29;20866;-83
2021/05/11 10:46:31;;;;;;;6.57;2.80;;;15.80;98.30;;;;;;4086535;29;20486;-84
2021/05/11 10:48:40;;;;;;;3.60;3.03;;;15.90;98.30;;;;;;4096754;29;20504;-82
2021/05/11 10:50:48;;;;;;;3.37;2.70;;;16.10;98.30;;;;;;4099858;28;20510;-86
2021/05/11 10:52:51;;;;;;;7.07;3.13;;;16.00;98.30;;;;;;4100434;29;20489;-82
2021/05/11 10:54:57;;;;;;;3.80;2.50;;;16.10;98.30;;;;;;4096109;29;20494;-83
2021/05/11 10:57:07;;;;;;;4.67;2.83;;;16.10;98.30;;;;;;4097656;29;20515;-82
2021/05/11 10:59:15;;;;;;;4.80;3.00;;;16.20;98.30;;;;;;4092290;29;21374;-83
2021/05/11 11:01:31;;;;;;;3.27;2.70;;;16.40;98.30;;;;;;4093894;29;20524;-83
2021/05/11 11:03:34;;;;;;;5.10;2.80;;;16.50;98.30;;;;;;4091032;29;20486;-83
2021/05/11 11:05:38;;;;;;;6.37;3.50;;;16.70;98.30;;;;;;4092242;29;20539;-83
2021/05/11 11:07:42;;;;;;;4.77;3.00;;;16.90;98.30;;;;;;4088421;28;20916;-83
2021/05/11 11:09:56;;;;;;;3.70;2.80;;;17.00;98.30;;;;;;4099225;29;20500;-83
2021/05/11 11:12:00;;;;;;;4.30;2.70;;;17.30;98.30;;;;;;4095595;29;20854;-83
2021/05/11 11:14:03;;;;;;;4.00;2.80;;;17.70;98.30;;;;;;4096299;29;20489;-83
2021/05/11 11:16:18;;;;;;;3.60;2.70;;;18.10;98.30;;;;;;4093781;29;20582;-84
2021/05/11 11:18:22;;;;;;;3.10;2.57;;;18.50;98.30;;;;;;4089374;29;20492;-84
2021/05/11 11:20:34;;;;;;;4.57;2.80;;;18.60;98.30;;;;;;4088450;28;20489;-83
2021/05/11 11:24:58;;;;;;;4.17;2.57;;;19.00;98.30;;;;;;4092625;29;20863;-84
2021/05/11 11:27:01;;;;;;;3.40;2.47;;;19.20;98.30;;;;;;4093707;29;20497;-84
2021/05/11 11:29:05;;;;;;;3.90;2.30;;;19.40;98.30;;;;;;4090164;29;20489;-85
2021/05/11 11:31:27;;;;;;;3.93;2.23;;;19.20;98.30;;;;;;4092116;28;20486;-84
2021/05/11 11:33:30;;;;;;;2.93;2.40;;;19.20;98.30;;;;;;4093048;29;20579;-84
2021/05/11 11:35:33;;;;;;;2.40;2.13;;;19.20;98.30;;;;;;4091594;29;20492;-84
2021/05/11 11:37:36;;;;;;;6.53;3.07;;;19.00;97.80;;;;;;4089294;29;20556;-84
2021/05/11 11:39:45;;;;;;;4.77;3.30;;;18.80;98.00;;;;;;4091985;28;20489;-84
2021/05/11 11:41:47;;;;;;;3.20;2.60;;;18.50;98.30;;;;;;4097366;29;21008;-84
2021/05/11 11:43:52;;;;;;;3.60;2.43;;;18.20;98.30;;;;;;4090762;29;20565;-82
2021/05/11 11:45:55;;;;;;;5.73;2.73;;;18.00;98.30;;;;;;4089898;29;21064;-84
2021/05/11 11:47:59;;;;;;;4.00;2.63;;;17.90;98.30;;;;;;4092909;29;20487;-84
2021/05/11 11:50:06;;;;;;;4.80;3.20;;;17.90;98.30;;;;;;4090084;29;20574;-84
2021/05/11 11:52:13;;;;;;;3.00;2.20;;;17.70;98.30;;;;;;4095796;29;20489;-84
2021/05/11 11:54:22;;;;;;;4.37;2.70;;;17.40;98.30;;;;;;4095755;29;20551;-83
2021/05/11 11:57:43;;;;;;;3.63;3.23;;;17.40;98.30;;;;;;4095126;29;20488;-83
2021/05/11 11:59:04;;;;;;;10.97;6.57;;;17.20;98.30;;;;;;4093583;28;20868;-84
2021/05/11 12:01:15;;;;;;;4.27;2.57;;;17.00;98.30;;;;;;4088637;29;20485;-84
2021/05/11 12:03:21;;;;;;;5.13;2.70;;;16.90;98.30;;;;;;4095985;29;20484;-82
2021/05/11 12:05:24;;;;;;;5.77;2.20;;;16.80;98.30;;;;;;4090141;29;20494;-84
2021/05/11 12:07:32;;;;;;;3.70;2.60;;;16.80;98.30;;;;;;4092656;29;20489;-84
2021/05/11 12:09:35;;;;;;;3.57;2.47;;;16.90;98.30;;;;;;4093410;29;20572;-84
2021/05/11 12:11:38;;;;;;;2.50;2.27;;;17.00;98.30;;;;;;4088519;29;20486;-83
2021/05/11 12:13:41;;;;;;;4.53;2.70;;;17.10;98.30;;;;;;4093833;29;20489;-83
2021/05/11 12:15:45;;;;;;;5.13;2.70;;;17.10;98.30;;;;;;4090986;29;20486;-83
2021/05/11 12:17:59;;;;;;;3.10;2.40;;;17.20;98.30;;;;;;4088964;29;20504;-84
2021/05/11 12:20:20;;;;;;;3.50;2.57;;;17.30;98.30;;;;;;4094529;28;20516;-83
2021/05/11 12:22:26;;;;;;;5.77;3.90;;;17.30;98.30;;;;;;4094707;29;20580;-84
2021/05/11 12:24:30;;;;;;;8.10;4.57;;;17.20;98.30;;;;;;4096967;29;20511;-84
2021/05/11 12:26:33;;;;;;;6.13;3.10;;;17.10;98.30;;;;;;4093852;29;20492;-83
2021/05/11 12:28:36;;;;;;;4.37;2.70;;;16.90;98.30;;;;;;4091091;29;20486;-83
2021/05/11 12:30:41;;;;;;;5.60;2.60;;;16.90;98.30;;;;;;4093521;29;20883;-83
2021/05/11 12:32:44;;;;;;;3.33;2.37;;;16.90;98.30;;;;;;4092353;29;20517;-84
2021/05/11 12:35:03;;;;;;;4.43;2.90;;;16.90;98.30;;;;;;4092224;29;20488;-84
2021/05/11 12:37:05;;;;;;;5.00;2.20;;;16.90;98.30;;;;;;4094139;29;20866;-84
2021/05/11 12:39:27;;;;;;;5.23;2.73;;;16.80;98.30;;;;;;4094373;28;20504;-84
2021/05/11 12:41:32;;;;;;;4.90;2.60;;;16.90;98.30;;;;;;4092656;29;20544;-84
2021/05/11 12:43:44;;;;;;;5.87;3.00;;;17.00;98.30;;;;;;4092606;29;20506;-84
2021/05/11 12:45:50;;;;;;;3.80;2.60;;;17.00;98.30;;;;;;4088644;29;20567;-83
2021/05/11 12:48:00;;;;;;;2.77;2.47;;;16.80;98.30;;;;;;4093469;29;20517;-83
2021/05/11 12:50:15;;;;;;;3.13;2.47;;;16.80;98.30;;;;;;4091031;29;20495;-83
2021/05/11 12:52:28;;;;;;;4.17;3.13;;;16.80;98.30;;;;;;4090641;29;20497;-84
2021/05/11 12:54:35;;;;;;;3.20;2.40;;;16.70;98.30;;;;;;4094237;29;21466;-83
2021/05/11 12:56:49;;;;;;;4.33;2.60;;;16.70;98.30;;;;;;4095966;29;20516;-84
2021/05/11 12:59:10;;;;;;;6.60;2.93;;;16.80;98.30;;;;;;4092663;28;20493;-83
2021/05/11 13:01:27;;;;;;;2.83;2.27;;;16.70;98.30;;;;;;4093036;29;20584;-83
2021/05/11 13:03:45;;;;;;;2.77;2.07;;;16.70;98.30;;;;;;4090912;29;21040;-84
2021/05/11 13:16:10;;;;;;;4.43;2.30;;;16.50;98.30;;;;;;4040869;29;21051;-84
2021/05/11 13:20:52;;;;;;;5.70;3.70;;;16.30;98.30;;;;;;4096885;28;20496;-83
2021/05/11 13:23:05;;;;;;;20.60;13.33;;;16.30;98.30;;;;;;4092481;29;20529;-83
2021/05/11 13:25:25;;;;;;;6.37;3.80;;;16.30;98.30;;;;;;4098907;29;20525;-83
2021/05/11 13:27:30;;;;;;;4.10;2.60;;;16.40;98.30;;;;;;4093814;29;20484;-84
2021/05/11 13:29:45;;;;;;;5.10;2.90;;;16.50;98.30;;;;;;4097892;28;20492;-83
2021/05/11 13:31:51;;;;;;;3.77;2.63;;;16.50;98.30;;;;;;4098461;28;20835;-83
2021/05/11 13:34:00;;;;;;;5.30;3.40;;;16.40;98.30;;;;;;4099708;29;20504;-84
2021/05/11 13:36:03;;;;;;;5.00;3.50;;;16.30;98.30;;;;;;4095138;29;20494;-84